sensor_id;sensor_type;location;lat;lon;timestamp;pressure;altitude;pressure_sealevel;temperature;humidity
47913;BME280;33676;51.006;17.180;2023-04-29T00:02:15;99842.93;;;12.06;74.82
47913;BME280;33676;51.006;17.180;2023-04-29T00:04:44;99841.36;;;12.06;74.86
47913;BME280;33676;51.006;17.180;2023-04-29T00:07:13;99843.30;;;12.06;75.01
47913;BME280;33676;51.006;17.180;2023-04-29T00:09:43;99838.92;;;12.06;75.05
47913;BME280;33676;51.006;17.180;2023-04-29T00:12:11;99837.07;;;12.05;75.22
47913;BME280;33676;51.006;17.180;2023-04-29T00:14:39;99835.47;;;12.04;75.28
47913;BME280;33676;51.006;17.180;2023-04-29T00:17:10;99833.06;;;12.01;75.38
47913;BME280;33676;51.006;17.180;2023-04-29T00:19:39;99836.63;;;11.98;75.31
47913;BME280;33676;51.006;17.180;2023-04-29T00:22:07;99834.56;;;11.96;75.42
47913;BME280;33676;51.006;17.180;2023-04-29T00:24:36;99831.14;;;11.93;75.46
47913;BME280;33676;51.006;17.180;2023-04-29T00:27:04;99831.84;;;11.91;75.35
47913;BME280;33676;51.006;17.180;2023-04-29T00:29:33;99828.70;;;11.89;75.47
47913;BME280;33676;51.006;17.180;2023-04-29T00:32:02;99828.52;;;11.88;75.43
47913;BME280;33676;51.006;17.180;2023-04-29T00:34:30;99829.55;;;11.86;75.46
47913;BME280;33676;51.006;17.180;2023-04-29T00:36:59;99824.84;;;11.81;75.55
47913;BME280;33676;51.006;17.180;2023-04-29T00:39:27;99824.24;;;11.79;75.61
47913;BME280;33676;51.006;17.180;2023-04-29T00:41:55;99819.13;;;11.75;75.69
47913;BME280;33676;51.006;17.180;2023-04-29T00:44:24;99812.45;;;11.71;75.90
47913;BME280;33676;51.006;17.180;2023-04-29T00:46:52;99814.52;;;11.68;75.91
47913;BME280;33676;51.006;17.180;2023-04-29T00:49:21;99812.92;;;11.64;76.08
47913;BME280;33676;51.006;17.180;2023-04-29T00:51:50;99807.80;;;11.60;76.04
47913;BME280;33676;51.006;17.180;2023-04-29T00:54:18;99807.35;;;11.58;76.05
47913;BME280;33676;51.006;17.180;2023-04-29T00:56:48;99808.92;;;11.56;76.20
47913;BME280;33676;51.006;17.180;2023-04-29T00:59:16;99801.66;;;11.53;76.12
47913;BME280;33676;51.006;17.180;2023-04-29T01:01:45;99799.00;;;11.51;76.29
47913;BME280;33676;51.006;17.180;2023-04-29T01:04:14;99797.23;;;11.50;76.26
47913;BME280;33676;51.006;17.180;2023-04-29T01:07:13;99799.74;;;11.49;76.32
47913;BME280;33676;51.006;17.180;2023-04-29T01:10:01;99793.20;;;11.48;76.46
47913;BME280;33676;51.006;17.180;2023-04-29T01:18:10;99792.38;;;11.45;76.60
47913;BME280;33676;51.006;17.180;2023-04-29T01:20:40;99795.92;;;11.45;76.73
47913;BME280;33676;51.006;17.180;2023-04-29T01:23:09;99798.31;;;11.44;76.75
47913;BME280;33676;51.006;17.180;2023-04-29T01:25:37;99797.66;;;11.43;76.71
47913;BME280;33676;51.006;17.180;2023-04-29T01:39:39;99796.48;;;11.44;76.77
47913;BME280;33676;51.006;17.180;2023-04-29T01:42:35;99799.90;;;11.45;76.76
47913;BME280;33676;51.006;17.180;2023-04-29T01:45:09;99797.30;;;11.45;76.79
47913;BME280;33676;51.006;17.180;2023-04-29T01:47:38;99792.38;;;11.45;76.76
47913;BME280;33676;51.006;17.180;2023-04-29T01:50:08;99793.52;;;11.46;76.67
47913;BME280;33676;51.006;17.180;2023-04-29T01:52:37;99792.17;;;11.48;76.68
47913;BME280;33676;51.006;17.180;2023-04-29T01:55:06;99791.23;;;11.48;76.79
47913;BME280;33676;51.006;17.180;2023-04-29T01:57:34;99794.69;;;11.49;76.65
47913;BME280;33676;51.006;17.180;2023-04-29T02:00:04;99796.54;;;11.50;76.71
47913;BME280;33676;51.006;17.180;2023-04-29T02:02:32;99796.84;;;11.50;76.73
47913;BME280;33676;51.006;17.180;2023-04-29T02:05:01;99796.62;;;11.51;76.61
47913;BME280;33676;51.006;17.180;2023-04-29T02:07:29;99791.70;;;11.51;76.64
47913;BME280;33676;51.006;17.180;2023-04-29T02:09:58;99796.79;;;11.51;76.58
47913;BME280;33676;51.006;17.180;2023-04-29T02:12:26;99793.34;;;11.50;76.60
47913;BME280;33676;51.006;17.180;2023-04-29T02:14:55;99794.46;;;11.49;76.68
47913;BME280;33676;51.006;17.180;2023-04-29T02:17:23;99793.44;;;11.49;76.64
47913;BME280;33676;51.006;17.180;2023-04-29T02:19:51;99789.30;;;11.48;76.78
47913;BME280;33676;51.006;17.180;2023-04-29T02:22:22;99790.79;;;11.47;76.77
47913;BME280;33676;51.006;17.180;2023-04-29T02:24:50;99782.80;;;11.47;76.84
47913;BME280;33676;51.006;17.180;2023-04-29T02:27:19;99782.58;;;11.45;76.94
47913;BME280;33676;51.006;17.180;2023-04-29T02:29:47;99782.70;;;11.44;76.86
47913;BME280;33676;51.006;17.180;2023-04-29T02:32:16;99776.78;;;11.42;76.90
47913;BME280;33676;51.006;17.180;2023-04-29T02:34:47;99772.85;;;11.41;77.07
47913;BME280;33676;51.006;17.180;2023-04-29T02:37:16;99772.46;;;11.39;77.11
47913;BME280;33676;51.006;17.180;2023-04-29T02:39:44;99774.18;;;11.38;77.06
47913;BME280;33676;51.006;17.180;2023-04-29T02:42:14;99773.52;;;11.38;77.24
47913;BME280;33676;51.006;17.180;2023-04-29T02:44:42;99772.33;;;11.37;77.27
47913;BME280;33676;51.006;17.180;2023-04-29T02:47:11;99773.98;;;11.36;77.30
47913;BME280;33676;51.006;17.180;2023-04-29T02:49:39;99769.48;;;11.36;77.35
47913;BME280;33676;51.006;17.180;2023-04-29T02:52:07;99767.29;;;11.37;77.40
47913;BME280;33676;51.006;17.180;2023-04-29T02:54:36;99772.52;;;11.37;77.48
47913;BME280;33676;51.006;17.180;2023-04-29T02:57:05;99767.77;;;11.37;77.54
47913;BME280;33676;51.006;17.180;2023-04-29T02:59:33;99767.27;;;11.37;77.62
47913;BME280;33676;51.006;17.180;2023-04-29T03:02:02;99764.14;;;11.37;77.65
47913;BME280;33676;51.006;17.180;2023-04-29T03:04:30;99763.98;;;11.37;77.69
47913;BME280;33676;51.006;17.180;2023-04-29T03:06:59;99764.02;;;11.36;77.80
47913;BME280;33676;51.006;17.180;2023-04-29T03:09:27;99762.43;;;11.36;77.86
47913;BME280;33676;51.006;17.180;2023-04-29T03:11:56;99762.88;;;11.37;78.03
47913;BME280;33676;51.006;17.180;2023-04-29T03:14:24;99758.95;;;11.38;77.96
47913;BME280;33676;51.006;17.180;2023-04-29T03:16:52;99752.31;;;11.38;77.91
47913;BME280;33676;51.006;17.180;2023-04-29T03:19:23;99746.95;;;11.37;77.99
47913;BME280;33676;51.006;17.180;2023-04-29T03:21:51;99748.78;;;11.36;78.09
47913;BME280;33676;51.006;17.180;2023-04-29T03:24:21;99748.72;;;11.35;78.11
47913;BME280;33676;51.006;17.180;2023-04-29T03:26:49;99746.48;;;11.34;78.25
47913;BME280;33676;51.006;17.180;2023-04-29T03:29:18;99746.20;;;11.34;78.29
47913;BME280;33676;51.006;17.180;2023-04-29T03:31:46;99746.64;;;11.33;78.32
47913;BME280;33676;51.006;17.180;2023-04-29T03:34:14;99738.16;;;11.31;78.47
47913;BME280;33676;51.006;17.180;2023-04-29T03:36:43;99738.36;;;11.32;78.45
47913;BME280;33676;51.006;17.180;2023-04-29T03:39:11;99741.54;;;11.31;78.45
47913;BME280;33676;51.006;17.180;2023-04-29T03:41:39;99741.27;;;11.30;78.59
47913;BME280;33676;51.006;17.180;2023-04-29T03:44:08;99746.73;;;11.30;78.68
47913;BME280;33676;51.006;17.180;2023-04-29T03:46:36;99749.96;;;11.28;78.71
47913;BME280;33676;51.006;17.180;2023-04-29T03:49:05;99746.64;;;11.26;78.74
47913;BME280;33676;51.006;17.180;2023-04-29T03:51:33;99742.11;;;11.24;78.84
47913;BME280;33676;51.006;17.180;2023-04-29T03:54:02;99740.39;;;11.22;78.71
47913;BME280;33676;51.006;17.180;2023-04-29T03:56:30;99735.52;;;11.20;78.88
47913;BME280;33676;51.006;17.180;2023-04-29T03:58:58;99736.29;;;11.17;78.99
47913;BME280;33676;51.006;17.180;2023-04-29T04:01:27;99739.42;;;11.15;78.95
47913;BME280;33676;51.006;17.180;2023-04-29T04:03:55;99743.27;;;11.15;79.03
47913;BME280;33676;51.006;17.180;2023-04-29T04:06:24;99743.11;;;11.13;79.01
47913;BME280;33676;51.006;17.180;2023-04-29T04:08:53;99748.41;;;11.13;79.11
47913;BME280;33676;51.006;17.180;2023-04-29T04:11:21;99743.39;;;11.10;79.22
47913;BME280;33676;51.006;17.180;2023-04-29T04:13:50;99738.98;;;11.10;79.36
47913;BME280;33676;51.006;17.180;2023-04-29T04:16:19;99739.29;;;11.11;79.49
47913;BME280;33676;51.006;17.180;2023-04-29T04:18:47;99735.23;;;11.13;79.71
47913;BME280;33676;51.006;17.180;2023-04-29T04:21:15;99739.02;;;11.16;79.79
47913;BME280;33676;51.006;17.180;2023-04-29T04:23:44;99742.05;;;11.19;79.86
47913;BME280;33676;51.006;17.180;2023-04-29T04:26:12;99748.89;;;11.23;80.03
47913;BME280;33676;51.006;17.180;2023-04-29T04:28:41;99748.23;;;11.26;80.02
47913;BME280;33676;51.006;17.180;2023-04-29T04:31:09;99742.96;;;11.28;80.08
47913;BME280;33676;51.006;17.180;2023-04-29T04:33:37;99745.73;;;11.29;80.09
47913;BME280;33676;51.006;17.180;2023-04-29T04:36:06;99746.45;;;11.29;80.03
47913;BME280;33676;51.006;17.180;2023-04-29T04:38:35;99743.70;;;11.28;80.06
47913;BME280;33676;51.006;17.180;2023-04-29T04:41:05;99741.98;;;11.28;80.06
47913;BME280;33676;51.006;17.180;2023-04-29T04:43:35;99739.57;;;11.27;80.04
47913;BME280;33676;51.006;17.180;2023-04-29T04:46:13;99737.44;;;11.26;80.08
47913;BME280;33676;51.006;17.180;2023-04-29T04:48:43;99738.46;;;11.26;80.11
47913;BME280;33676;51.006;17.180;2023-04-29T04:51:12;99743.91;;;11.26;80.18
47913;BME280;33676;51.006;17.180;2023-04-29T04:53:41;99743.70;;;11.28;80.23
47913;BME280;33676;51.006;17.180;2023-04-29T04:56:09;99743.44;;;11.33;80.23
47913;BME280;33676;51.006;17.180;2023-04-29T04:58:37;99743.83;;;11.42;80.52
47913;BME280;33676;51.006;17.180;2023-04-29T05:01:06;99747.16;;;11.55;80.88
47913;BME280;33676;51.006;17.180;2023-04-29T05:03:34;99745.83;;;11.70;81.15
47913;BME280;33676;51.006;17.180;2023-04-29T05:06:03;99744.50;;;11.87;81.36
47913;BME280;33676;51.006;17.180;2023-04-29T05:08:31;99743.05;;;12.04;81.34
47913;BME280;33676;51.006;17.180;2023-04-29T05:11:00;99736.77;;;12.21;81.36
47913;BME280;33676;51.006;17.180;2023-04-29T05:13:28;99735.69;;;12.38;81.40
47913;BME280;33676;51.006;17.180;2023-04-29T05:15:57;99738.84;;;12.54;81.53
47913;BME280;33676;51.006;17.180;2023-04-29T05:18:25;99734.15;;;12.69;81.32
47913;BME280;33676;51.006;17.180;2023-04-29T05:20:53;99731.85;;;12.80;81.12
47913;BME280;33676;51.006;17.180;2023-04-29T05:23:22;99728.30;;;12.91;80.81
47913;BME280;33676;51.006;17.180;2023-04-29T05:25:51;99729.16;;;13.02;80.75
47913;BME280;33676;51.006;17.180;2023-04-29T05:28:19;99730.50;;;13.14;80.53
47913;BME280;33676;51.006;17.180;2023-04-29T05:30:51;99737.57;;;13.26;80.41
47913;BME280;33676;51.006;17.180;2023-04-29T05:33:19;99737.09;;;13.38;80.16
47913;BME280;33676;51.006;17.180;2023-04-29T05:35:48;99735.94;;;13.48;79.84
47913;BME280;33676;51.006;17.180;2023-04-29T05:38:16;99736.18;;;13.59;79.86
47913;BME280;33676;51.006;17.180;2023-04-29T05:40:44;99735.05;;;13.71;79.56
47913;BME280;33676;51.006;17.180;2023-04-29T05:43:13;99737.79;;;13.83;79.59
47913;BME280;33676;51.006;17.180;2023-04-29T05:45:45;99742.57;;;13.97;79.43
47913;BME280;33676;51.006;17.180;2023-04-29T05:48:14;99745.69;;;14.18;79.44
47913;BME280;33676;51.006;17.180;2023-04-29T05:50:42;99744.51;;;14.39;79.37
47913;BME280;33676;51.006;17.180;2023-04-29T05:53:11;99744.19;;;14.61;79.43
47913;BME280;33676;51.006;17.180;2023-04-29T05:55:39;99742.60;;;14.82;79.21
47913;BME280;33676;51.006;17.180;2023-04-29T05:58:12;99741.77;;;15.05;79.08
47913;BME280;33676;51.006;17.180;2023-04-29T06:00:42;99735.38;;;15.27;79.07
47913;BME280;33676;51.006;17.180;2023-04-29T06:03:11;99736.04;;;15.52;78.95
47913;BME280;33676;51.006;17.180;2023-04-29T06:05:40;99736.91;;;15.72;78.26
47913;BME280;33676;51.006;17.180;2023-04-29T06:08:09;99740.12;;;15.85;77.83
47913;BME280;33676;51.006;17.180;2023-04-29T06:10:38;99740.73;;;15.95;77.33
47913;BME280;33676;51.006;17.180;2023-04-29T06:13:07;99742.50;;;16.08;76.94
47913;BME280;33676;51.006;17.180;2023-04-29T06:15:35;99736.80;;;16.21;76.96
47913;BME280;33676;51.006;17.180;2023-04-29T06:18:04;99740.41;;;16.35;76.80
47913;BME280;33676;51.006;17.180;2023-04-29T06:20:32;99741.01;;;16.48;77.03
47913;BME280;33676;51.006;17.180;2023-04-29T06:23:03;99745.79;;;16.64;76.99
47913;BME280;33676;51.006;17.180;2023-04-29T06:25:32;99749.52;;;16.77;76.94
47913;BME280;33676;51.006;17.180;2023-04-29T06:28:01;99755.29;;;16.82;76.18
47913;BME280;33676;51.006;17.180;2023-04-29T06:30:31;99754.63;;;16.81;75.58
47913;BME280;33676;51.006;17.180;2023-04-29T06:32:59;99752.23;;;16.79;75.36
47913;BME280;33676;51.006;17.180;2023-04-29T06:35:28;99748.88;;;16.77;75.39
47913;BME280;33676;51.006;17.180;2023-04-29T06:37:56;99755.45;;;16.72;75.01
47913;BME280;33676;51.006;17.180;2023-04-29T06:40:24;99757.26;;;16.69;74.69
47913;BME280;33676;51.006;17.180;2023-04-29T06:42:53;99760.95;;;16.61;74.30
47913;BME280;33676;51.006;17.180;2023-04-29T06:45:21;99761.08;;;16.53;74.26
47913;BME280;33676;51.006;17.180;2023-04-29T06:47:50;99759.23;;;16.48;74.38
47913;BME280;33676;51.006;17.180;2023-04-29T06:50:19;99760.50;;;16.46;74.46
47913;BME280;33676;51.006;17.180;2023-04-29T06:52:47;99761.20;;;16.44;74.67
47913;BME280;33676;51.006;17.180;2023-04-29T06:55:16;99760.13;;;16.46;74.66
47913;BME280;33676;51.006;17.180;2023-04-29T06:57:45;99758.69;;;16.43;74.70
47913;BME280;33676;51.006;17.180;2023-04-29T07:00:13;99763.61;;;16.43;74.83
47913;BME280;33676;51.006;17.180;2023-04-29T07:02:43;99763.92;;;16.37;74.81
47913;BME280;33676;51.006;17.180;2023-04-29T07:05:11;99760.10;;;16.32;74.73
47913;BME280;33676;51.006;17.180;2023-04-29T07:07:39;99760.31;;;16.27;74.85
47913;BME280;33676;51.006;17.180;2023-04-29T07:10:08;99763.75;;;16.26;75.04
47913;BME280;33676;51.006;17.180;2023-04-29T07:12:37;99767.59;;;16.23;74.88
47913;BME280;33676;51.006;17.180;2023-04-29T07:15:06;99767.39;;;16.19;74.88
47913;BME280;33676;51.006;17.180;2023-04-29T07:17:35;99770.11;;;16.15;74.92
47913;BME280;33676;51.006;17.180;2023-04-29T07:20:05;99771.20;;;16.08;74.96
47913;BME280;33676;51.006;17.180;2023-04-29T07:22:33;99770.18;;;16.02;74.99
47913;BME280;33676;51.006;17.180;2023-04-29T07:25:02;99768.64;;;15.95;74.99
47913;BME280;33676;51.006;17.180;2023-04-29T07:27:33;99774.22;;;15.89;75.16
47913;BME280;33676;51.006;17.180;2023-04-29T07:30:05;99772.39;;;15.84;75.33
47913;BME280;33676;51.006;17.180;2023-04-29T07:32:34;99772.77;;;15.81;75.42
47913;BME280;33676;51.006;17.180;2023-04-29T07:35:02;99773.75;;;15.78;75.47
47913;BME280;33676;51.006;17.180;2023-04-29T07:37:31;99775.07;;;15.74;75.64
47913;BME280;33676;51.006;17.180;2023-04-29T07:39:59;99773.59;;;15.74;75.90
47913;BME280;33676;51.006;17.180;2023-04-29T07:42:28;99771.86;;;15.72;76.11
47913;BME280;33676;51.006;17.180;2023-04-29T07:44:56;99775.83;;;15.67;75.92
47913;BME280;33676;51.006;17.180;2023-04-29T07:47:25;99776.39;;;15.64;76.37
47913;BME280;33676;51.006;17.180;2023-04-29T07:49:54;99777.73;;;15.61;76.73
47913;BME280;33676;51.006;17.180;2023-04-29T07:52:22;99777.20;;;15.58;76.73
47913;BME280;33676;51.006;17.180;2023-04-29T07:54:51;99779.60;;;15.53;76.78
47913;BME280;33676;51.006;17.180;2023-04-29T07:57:20;99779.63;;;15.52;77.11
47913;BME280;33676;51.006;17.180;2023-04-29T07:59:54;99781.78;;;15.53;77.43
47913;BME280;33676;51.006;17.180;2023-04-29T08:02:22;99779.79;;;15.55;77.60
47913;BME280;33676;51.006;17.180;2023-04-29T08:04:51;99777.71;;;15.58;77.89
47913;BME280;33676;51.006;17.180;2023-04-29T08:07:22;99783.65;;;15.62;77.89
47913;BME280;33676;51.006;17.180;2023-04-29T08:09:50;99787.95;;;15.66;77.99
47913;BME280;33676;51.006;17.180;2023-04-29T08:12:19;99784.28;;;15.71;78.23
47913;BME280;33676;51.006;17.180;2023-04-29T08:14:47;99786.77;;;15.72;78.36
47913;BME280;33676;51.006;17.180;2023-04-29T08:17:16;99786.93;;;15.74;78.28
47913;BME280;33676;51.006;17.180;2023-04-29T08:19:44;99792.00;;;15.79;78.29
47913;BME280;33676;51.006;17.180;2023-04-29T08:22:12;99794.96;;;15.83;78.46
47913;BME280;33676;51.006;17.180;2023-04-29T08:24:41;99791.34;;;15.85;78.80
47913;BME280;33676;51.006;17.180;2023-04-29T08:27:10;99791.90;;;15.88;79.14
47913;BME280;33676;51.006;17.180;2023-04-29T08:29:38;99788.54;;;15.95;79.58
47913;BME280;33676;51.006;17.180;2023-04-29T08:32:07;99788.99;;;16.02;79.78
47913;BME280;33676;51.006;17.180;2023-04-29T08:34:36;99789.12;;;16.09;79.70
47913;BME280;33676;51.006;17.180;2023-04-29T08:37:05;99790.54;;;16.15;79.70
47913;BME280;33676;51.006;17.180;2023-04-29T08:39:34;99791.83;;;16.24;79.78
47913;BME280;33676;51.006;17.180;2023-04-29T08:42:10;99792.11;;;16.36;79.81
47913;BME280;33676;51.006;17.180;2023-04-29T08:44:39;99794.30;;;16.48;80.23
47913;BME280;33676;51.006;17.180;2023-04-29T08:47:08;99791.50;;;16.56;80.20
47913;BME280;33676;51.006;17.180;2023-04-29T08:49:37;99793.85;;;16.61;79.79
47913;BME280;33676;51.006;17.180;2023-04-29T08:52:06;99796.81;;;16.64;79.87
47913;BME280;33676;51.006;17.180;2023-04-29T08:54:34;99798.05;;;16.70;79.66
47913;BME280;33676;51.006;17.180;2023-04-29T08:57:04;99800.73;;;16.75;79.36
47913;BME280;33676;51.006;17.180;2023-04-29T08:59:35;99804.88;;;16.80;79.43
47913;BME280;33676;51.006;17.180;2023-04-29T09:02:05;99804.75;;;16.80;79.47
47913;BME280;33676;51.006;17.180;2023-04-29T09:04:46;99804.96;;;16.73;79.45
47913;BME280;33676;51.006;17.180;2023-04-29T09:07:16;99806.28;;;16.74;79.80
47913;BME280;33676;51.006;17.180;2023-04-29T09:09:45;99807.63;;;16.79;80.12
47913;BME280;33676;51.006;17.180;2023-04-29T09:12:14;99812.27;;;16.77;79.66
47913;BME280;33676;51.006;17.180;2023-04-29T09:14:43;99810.52;;;16.77;79.46
47913;BME280;33676;51.006;17.180;2023-04-29T09:17:11;99812.14;;;16.80;79.52
47913;BME280;33676;51.006;17.180;2023-04-29T09:19:40;99813.90;;;16.83;79.55
47913;BME280;33676;51.006;17.180;2023-04-29T09:22:08;99817.00;;;16.87;79.57
47913;BME280;33676;51.006;17.180;2023-04-29T09:24:38;99818.92;;;16.89;79.40
47913;BME280;33676;51.006;17.180;2023-04-29T09:27:07;99819.82;;;16.89;79.21
47913;BME280;33676;51.006;17.180;2023-04-29T09:29:36;99820.11;;;16.97;79.42
47913;BME280;33676;51.006;17.180;2023-04-29T09:32:18;99820.92;;;17.13;79.66
47913;BME280;33676;51.006;17.180;2023-04-29T09:34:48;99825.37;;;17.32;79.85
47913;BME280;33676;51.006;17.180;2023-04-29T09:37:28;99825.71;;;17.47;79.62
47913;BME280;33676;51.006;17.180;2023-04-29T09:39:57;99829.65;;;17.67;79.62
47913;BME280;33676;51.006;17.180;2023-04-29T09:42:29;99834.88;;;17.87;79.59
47913;BME280;33676;51.006;17.180;2023-04-29T09:44:59;99833.11;;;18.13;79.63
47913;BME280;33676;51.006;17.180;2023-04-29T09:47:29;99828.98;;;18.39;79.73
47913;BME280;33676;51.006;17.180;2023-04-29T09:50:10;99831.15;;;18.61;79.26
47913;BME280;33676;51.006;17.180;2023-04-29T09:52:41;99834.86;;;18.79;78.91
47913;BME280;33676;51.006;17.180;2023-04-29T09:55:10;99835.16;;;18.88;78.75
47913;BME280;33676;51.006;17.180;2023-04-29T09:57:39;99831.61;;;18.92;78.25
47913;BME280;33676;51.006;17.180;2023-04-29T10:00:13;99831.33;;;18.95;77.81
47913;BME280;33676;51.006;17.180;2023-04-29T10:02:47;99828.63;;;19.01;77.30
47913;BME280;33676;51.006;17.180;2023-04-29T10:05:20;99829.80;;;19.06;77.39
47913;BME280;33676;51.006;17.180;2023-04-29T10:07:50;99834.88;;;19.10;77.04
47913;BME280;33676;51.006;17.180;2023-04-29T10:10:20;99831.97;;;19.03;76.50
47913;BME280;33676;51.006;17.180;2023-04-29T10:12:54;99837.20;;;18.99;76.56
47913;BME280;33676;51.006;17.180;2023-04-29T10:15:38;99834.98;;;18.93;76.72
47913;BME280;33676;51.006;17.180;2023-04-29T10:18:18;99836.84;;;18.86;76.67
47913;BME280;33676;51.006;17.180;2023-04-29T10:20:47;99840.80;;;18.79;76.44
47913;BME280;33676;51.006;17.180;2023-04-29T10:23:16;99836.37;;;18.72;76.40
47913;BME280;33676;51.006;17.180;2023-04-29T10:25:49;99834.40;;;18.62;76.48
47913;BME280;33676;51.006;17.180;2023-04-29T10:28:21;99832.38;;;18.57;76.27
47913;BME280;33676;51.006;17.180;2023-04-29T10:30:50;99831.41;;;18.53;76.08
47913;BME280;33676;51.006;17.180;2023-04-29T10:33:21;99835.12;;;18.47;75.89
47913;BME280;33676;51.006;17.180;2023-04-29T10:35:50;99831.66;;;18.48;76.20
47913;BME280;33676;51.006;17.180;2023-04-29T10:38:36;99827.14;;;18.52;76.15
47913;BME280;33676;51.006;17.180;2023-04-29T10:41:22;99826.14;;;18.56;76.26
47913;BME280;33676;51.006;17.180;2023-04-29T10:43:57;99828.04;;;18.61;76.34
47913;BME280;33676;51.006;17.180;2023-04-29T10:46:26;99827.97;;;18.79;76.48
47913;BME280;33676;51.006;17.180;2023-04-29T10:49:03;99824.67;;;19.15;76.78
47913;BME280;33676;51.006;17.180;2023-04-29T10:51:42;99826.25;;;19.58;76.59
47913;BME280;33676;51.006;17.180;2023-04-29T10:54:15;99822.99;;;19.98;76.12
47913;BME280;33676;51.006;17.180;2023-04-29T10:56:50;99815.36;;;20.35;75.94
47913;BME280;33676;51.006;17.180;2023-04-29T10:59:21;99812.86;;;20.73;76.17
47913;BME280;33676;51.006;17.180;2023-04-29T11:02:09;99811.57;;;21.10;76.01
47913;BME280;33676;51.006;17.180;2023-04-29T11:05:10;99810.70;;;21.56;76.15
47913;BME280;33676;51.006;17.180;2023-04-29T11:07:39;99809.28;;;22.32;76.69
47913;BME280;33676;51.006;17.180;2023-04-29T11:10:08;99802.47;;;23.02;76.75
47913;BME280;33676;51.006;17.180;2023-04-29T11:12:37;99807.58;;;23.63;74.42
47913;BME280;33676;51.006;17.180;2023-04-29T11:15:06;99807.27;;;24.06;73.68
47913;BME280;33676;51.006;17.180;2023-04-29T11:17:38;99807.09;;;24.35;72.38
47913;BME280;33676;51.006;17.180;2023-04-29T11:20:12;99805.78;;;24.45;70.56
47913;BME280;33676;51.006;17.180;2023-04-29T11:22:49;99807.10;;;24.69;69.99
47913;BME280;33676;51.006;17.180;2023-04-29T11:25:20;99806.00;;;24.68;68.92
47913;BME280;33676;51.006;17.180;2023-04-29T11:27:53;99801.64;;;24.93;69.36
47913;BME280;33676;51.006;17.180;2023-04-29T11:30:24;99801.98;;;25.50;70.21
47913;BME280;33676;51.006;17.180;2023-04-29T11:32:57;99803.96;;;26.10;70.27
47913;BME280;33676;51.006;17.180;2023-04-29T11:35:26;99804.48;;;26.25;68.04
47913;BME280;33676;51.006;17.180;2023-04-29T11:40:31;99802.83;;;26.14;66.98
47913;BME280;33676;51.006;17.180;2023-04-29T11:42:59;99803.95;;;25.92;64.53
47913;BME280;33676;51.006;17.180;2023-04-29T11:45:28;99801.60;;;25.43;63.55
47913;BME280;33676;51.006;17.180;2023-04-29T11:47:56;99801.36;;;25.17;64.23
47913;BME280;33676;51.006;17.180;2023-04-29T11:50:25;99803.73;;;25.13;64.88
47913;BME280;33676;51.006;17.180;2023-04-29T11:52:56;99803.38;;;25.45;65.67
47913;BME280;33676;51.006;17.180;2023-04-29T11:55:25;99804.90;;;25.64;65.33
47913;BME280;33676;51.006;17.180;2023-04-29T11:57:56;99803.91;;;25.67;64.05
47913;BME280;33676;51.006;17.180;2023-04-29T12:00:24;99804.35;;;25.74;63.76
47913;BME280;33676;51.006;17.180;2023-04-29T12:02:53;99809.68;;;25.91;63.08
47913;BME280;33676;51.006;17.180;2023-04-29T12:05:27;99808.54;;;26.15;62.51
47913;BME280;33676;51.006;17.180;2023-04-29T12:07:55;99807.98;;;26.58;63.08
47913;BME280;33676;51.006;17.180;2023-04-29T12:10:24;99807.13;;;26.73;62.47
47913;BME280;33676;51.006;17.180;2023-04-29T12:12:55;99807.09;;;26.56;61.56
47913;BME280;33676;51.006;17.180;2023-04-29T12:15:27;99807.27;;;26.33;61.58
47913;BME280;33676;51.006;17.180;2023-04-29T12:17:57;99804.94;;;26.32;61.62
47913;BME280;33676;51.006;17.180;2023-04-29T12:20:27;99805.54;;;26.22;61.54
47913;BME280;33676;51.006;17.180;2023-04-29T12:23:10;99803.43;;;26.17;61.33
47913;BME280;33676;51.006;17.180;2023-04-29T12:26:46;99800.53;;;26.41;61.45
47913;BME280;33676;51.006;17.180;2023-04-29T12:29:15;99800.41;;;26.63;60.72
47913;BME280;33676;51.006;17.180;2023-04-29T12:31:49;99796.73;;;26.82;60.53
47913;BME280;33676;51.006;17.180;2023-04-29T12:34:31;99793.19;;;26.99;60.76
47913;BME280;33676;51.006;17.180;2023-04-29T12:37:03;99793.05;;;27.00;60.24
47913;BME280;33676;51.006;17.180;2023-04-29T12:39:35;99788.05;;;26.73;59.53
47913;BME280;33676;51.006;17.180;2023-04-29T12:42:16;99789.16;;;26.30;59.45
47913;BME280;33676;51.006;17.180;2023-04-29T12:44:49;99789.33;;;25.91;59.71
47913;BME280;33676;51.006;17.180;2023-04-29T12:47:18;99787.03;;;25.51;59.50
47913;BME280;33676;51.006;17.180;2023-04-29T12:49:48;99786.70;;;25.05;59.74
47913;BME280;33676;51.006;17.180;2023-04-29T12:52:19;99790.13;;;24.72;60.04
47913;BME280;33676;51.006;17.180;2023-04-29T12:54:48;99787.37;;;24.40;60.33
47913;BME280;33676;51.006;17.180;2023-04-29T12:57:16;99788.76;;;24.17;61.03
47913;BME280;33676;51.006;17.180;2023-04-29T12:59:45;99792.34;;;24.17;61.41
47913;BME280;33676;51.006;17.180;2023-04-29T13:02:13;99789.27;;;24.32;61.84
47913;BME280;33676;51.006;17.180;2023-04-29T13:04:42;99789.80;;;24.55;62.42
47913;BME280;33676;51.006;17.180;2023-04-29T13:07:11;99787.45;;;24.97;62.37
47913;BME280;33676;51.006;17.180;2023-04-29T13:09:40;99791.86;;;25.21;61.62
47913;BME280;33676;51.006;17.180;2023-04-29T13:12:12;99791.21;;;25.30;60.78
47913;BME280;33676;51.006;17.180;2023-04-29T13:14:40;99786.55;;;25.27;60.41
47913;BME280;33676;51.006;17.180;2023-04-29T13:17:09;99784.93;;;25.20;60.50
47913;BME280;33676;51.006;17.180;2023-04-29T13:19:38;99784.29;;;25.13;60.53
47913;BME280;33676;51.006;17.180;2023-04-29T13:22:20;99782.85;;;25.02;60.34
47913;BME280;33676;51.006;17.180;2023-04-29T13:24:48;99783.38;;;24.96;60.45
47913;BME280;33676;51.006;17.180;2023-04-29T13:27:18;99780.77;;;25.04;60.78